createdAt,value
2018-09-15T00:00:25.543Z,22.55
2018-09-15T00:02:51.883Z,22.51
2018-09-15T00:05:18.204Z,22.50
2018-09-15T00:07:44.525Z,22.50
2018-09-15T00:10:10.873Z,22.50
2018-09-15T00:12:37.341Z,22.48
2018-09-15T00:15:03.700Z,22.48
2018-09-15T00:17:30.123Z,22.48
2018-09-15T00:19:56.568Z,22.46
2018-09-15T00:22:22.909Z,22.46
2018-09-15T00:24:49.288Z,22.45
2018-09-15T00:27:15.628Z,22.44
2018-09-15T00:29:41.972Z,22.44
2018-09-15T00:32:08.312Z,22.41
2018-09-15T00:34:34.828Z,22.40
2018-09-15T00:37:01.158Z,22.41
2018-09-15T00:39:27.527Z,22.39
2018-09-15T00:41:53.984Z,22.40
2018-09-15T00:44:20.333Z,22.40
2018-09-15T00:46:46.670Z,22.37
2018-09-15T00:49:13.035Z,22.37
2018-09-15T00:51:39.364Z,22.36
2018-09-15T00:54:05.741Z,22.35
2018-09-15T00:56:32.081Z,22.35
2018-09-15T00:58:58.446Z,22.33
2018-09-15T01:01:24.783Z,22.33
2018-09-15T01:03:51.255Z,22.30
2018-09-15T01:06:17.692Z,22.30
2018-09-15T01:08:44.069Z,22.29
2018-09-15T01:11:10.424Z,22.31
2018-09-15T01:13:36.897Z,22.28
2018-09-15T01:16:03.263Z,22.29
2018-09-15T01:18:29.623Z,22.27
2018-09-15T01:20:56.031Z,22.26
2018-09-15T01:23:22.463Z,22.26
2018-09-15T01:25:48.812Z,22.24
2018-09-15T01:28:15.148Z,22.24
2018-09-15T01:30:41.476Z,22.22
2018-09-15T01:33:07.823Z,22.26
2018-09-15T01:35:34.146Z,22.22
2018-09-15T01:38:00.540Z,22.19
2018-09-15T01:40:26.889Z,22.16
2018-09-15T01:42:53.530Z,22.18
2018-09-15T01:45:19.893Z,22.18
2018-09-15T01:47:46.236Z,22.19
2018-09-15T01:50:12.571Z,22.15
2018-09-15T01:52:38.935Z,22.16
2018-09-15T01:55:05.362Z,22.14
2018-09-15T01:57:31.734Z,22.13
2018-09-15T01:59:58.074Z,22.11
2018-09-15T02:02:24.412Z,22.11
2018-09-15T02:04:50.907Z,22.10
2018-09-15T02:07:17.259Z,22.09
2018-09-15T02:09:43.646Z,22.10
2018-09-15T02:12:09.980Z,22.08
2018-09-15T02:14:36.321Z,22.06
2018-09-15T02:17:02.663Z,22.05
2018-09-15T02:19:29.085Z,22.03
2018-09-15T02:21:55.485Z,22.05
2018-09-15T02:24:21.832Z,22.02
2018-09-15T02:26:48.171Z,22.04
2018-09-15T02:29:14.508Z,22.03
2018-09-15T02:31:40.839Z,22.01
2018-09-15T02:34:07.183Z,21.98
2018-09-15T02:36:33.545Z,21.99
2018-09-15T02:38:59.897Z,22.00
2018-09-15T02:41:26.279Z,21.98
2018-09-15T02:43:52.652Z,21.97
2018-09-15T02:46:18.981Z,21.98
2018-09-15T02:48:45.320Z,21.95
2018-09-15T02:51:11.681Z,21.95
2018-09-15T02:53:38.035Z,21.93
2018-09-15T02:56:04.413Z,21.91
2018-09-15T02:58:30.752Z,21.93
2018-09-15T03:00:57.090Z,21.92
2018-09-15T03:03:23.453Z,21.89
2018-09-15T03:05:49.812Z,21.90
2018-09-15T03:08:16.164Z,21.88
2018-09-15T03:10:42.549Z,21.87
2018-09-15T03:13:08.923Z,21.87
2018-09-15T03:15:35.266Z,21.87
2018-09-15T03:18:01.609Z,21.84
2018-09-15T03:20:27.953Z,21.86
2018-09-15T03:22:54.284Z,21.83
2018-09-15T03:25:20.657Z,21.81
2018-09-15T03:27:47.031Z,21.82
2018-09-15T03:30:13.367Z,21.80
2018-09-15T03:32:39.675Z,21.79
2018-09-15T03:35:06.014Z,21.81
2018-09-15T03:37:32.400Z,21.77
2018-09-15T03:39:58.731Z,21.79
2018-09-15T03:42:25.073Z,21.76
2018-09-15T03:44:51.547Z,21.75
2018-09-15T03:47:18.000Z,21.74
2018-09-15T03:49:44.336Z,21.77
2018-09-15T03:52:10.668Z,21.75
2018-09-15T03:54:36.995Z,21.72
2018-09-15T03:57:03.347Z,21.71
2018-09-15T03:59:29.748Z,21.72
2018-09-15T04:01:56.079Z,21.69
2018-09-15T04:04:22.506Z,21.67
2018-09-15T04:06:48.904Z,21.67
2018-09-15T04:09:15.277Z,21.68
2018-09-15T04:11:41.651Z,21.65
2018-09-15T04:14:08.044Z,21.66
2018-09-15T04:16:34.399Z,21.67
2018-09-15T04:19:00.798Z,21.66
2018-09-15T04:21:27.133Z,21.66
2018-09-15T04:23:53.488Z,21.67
2018-09-15T04:26:19.811Z,21.66
2018-09-15T04:28:46.150Z,21.68
2018-09-15T04:31:12.512Z,21.69
2018-09-15T04:33:38.839Z,21.71
2018-09-15T04:36:05.168Z,21.75
2018-09-15T04:38:31.528Z,21.81
2018-09-15T04:40:57.895Z,21.82
2018-09-15T04:43:24.227Z,21.82
2018-09-15T04:45:50.770Z,21.79
2018-09-15T04:48:17.093Z,21.82
2018-09-15T04:50:43.423Z,21.85
2018-09-15T04:53:09.757Z,21.89
2018-09-15T04:55:36.100Z,21.92
2018-09-15T04:58:02.418Z,22.02
2018-09-15T05:00:28.743Z,22.03
2018-09-15T05:02:55.107Z,22.01
2018-09-15T05:05:21.438Z,22.02
2018-09-15T05:07:47.785Z,22.06
2018-09-15T05:10:14.125Z,22.08
2018-09-15T05:12:40.537Z,22.10
2018-09-15T05:15:06.893Z,22.13
2018-09-15T05:17:33.236Z,22.18
2018-09-15T05:19:59.565Z,22.17
2018-09-15T05:22:25.930Z,22.21
2018-09-15T05:24:52.928Z,22.26
2018-09-15T05:27:19.259Z,22.29
2018-09-15T05:29:45.588Z,22.30
2018-09-15T05:32:11.956Z,22.33
2018-09-15T05:34:38.292Z,22.36
2018-09-15T05:37:04.648Z,22.37
2018-09-15T05:39:31.008Z,22.40
2018-09-15T05:41:57.384Z,22.42
2018-09-15T05:44:23.981Z,22.45
2018-09-15T05:46:50.594Z,22.47
2018-09-15T05:49:16.943Z,22.48
2018-09-15T05:51:43.286Z,22.50
2018-09-15T05:54:09.629Z,22.49
2018-09-15T05:56:35.999Z,22.56
2018-09-15T05:59:02.343Z,22.58
2018-09-15T06:01:28.747Z,22.61
2018-09-15T06:03:55.124Z,22.61
2018-09-15T06:06:21.442Z,22.64
2018-09-15T06:08:47.773Z,22.66
2018-09-15T06:11:14.170Z,22.68
2018-09-15T06:13:40.592Z,22.72
2018-09-15T06:16:06.929Z,22.74
2018-09-15T06:18:33.295Z,22.74
2018-09-15T06:20:59.668Z,22.77
2018-09-15T06:23:25.999Z,22.78
2018-09-15T06:25:52.375Z,22.79
2018-09-15T06:28:18.695Z,22.83
2018-09-15T06:30:45.029Z,22.83
2018-09-15T06:33:11.351Z,22.85
2018-09-15T06:35:37.754Z,22.88
2018-09-15T06:38:04.220Z,22.89
2018-09-15T06:40:30.575Z,22.92
2018-09-15T06:42:56.908Z,22.94
2018-09-15T06:45:23.385Z,22.96
2018-09-15T06:47:49.759Z,22.97
2018-09-15T06:50:16.130Z,23.00
2018-09-15T06:52:42.472Z,23.01
2018-09-15T06:55:08.799Z,23.03
2018-09-15T06:57:35.131Z,23.04
2018-09-15T07:00:01.548Z,23.06
2018-09-15T07:02:27.896Z,23.09
2018-09-15T07:04:54.234Z,23.10
2018-09-15T07:07:20.593Z,23.12
2018-09-15T07:09:46.936Z,23.12
2018-09-15T07:12:13.351Z,23.15
2018-09-15T07:14:39.752Z,23.16
2018-09-15T07:17:06.097Z,23.20
2018-09-15T07:19:32.451Z,23.21
2018-09-15T07:21:58.821Z,23.22
2018-09-15T07:24:25.152Z,23.23
2018-09-15T07:26:51.779Z,23.23
2018-09-15T07:29:18.158Z,23.26
2018-09-15T07:31:44.538Z,23.26
2018-09-15T07:34:10.911Z,23.28
2018-09-15T07:36:37.296Z,23.29
2018-09-15T07:39:03.639Z,23.29
2018-09-15T07:41:29.997Z,23.30
2018-09-15T07:43:56.341Z,23.32
2018-09-15T07:46:22.714Z,23.32
2018-09-15T07:48:49.039Z,23.34
2018-09-15T07:51:15.381Z,23.34
2018-09-15T07:53:41.805Z,23.35
2018-09-15T07:56:08.147Z,23.36
2018-09-15T07:58:34.498Z,23.37
2018-09-15T08:01:00.891Z,23.38
2018-09-15T08:03:27.221Z,23.39
2018-09-15T08:05:53.579Z,23.39
2018-09-15T08:08:19.918Z,23.41
2018-09-15T08:10:46.361Z,23.41
2018-09-15T08:13:12.701Z,23.42
2018-09-15T08:15:39.024Z,23.41
2018-09-15T08:18:05.405Z,23.42
2018-09-15T08:20:31.759Z,23.44
2018-09-15T08:22:58.139Z,23.43
2018-09-15T08:25:24.497Z,23.43
2018-09-15T08:27:50.875Z,23.43
2018-09-15T08:30:17.272Z,23.44
2018-09-15T08:32:43.699Z,23.44
2018-09-15T08:35:10.133Z,23.44
2018-09-15T08:37:36.491Z,23.44
2018-09-15T08:40:02.865Z,23.45
2018-09-15T08:42:29.200Z,23.46
2018-09-15T08:44:55.558Z,23.47
2018-09-15T08:47:21.901Z,23.47
2018-09-15T08:49:48.254Z,23.49
2018-09-15T08:52:14.611Z,23.49
2018-09-15T08:54:40.975Z,23.52
2018-09-15T08:57:07.333Z,23.52
2018-09-15T08:59:33.720Z,23.54
2018-09-15T09:02:00.084Z,23.54
2018-09-15T09:04:26.422Z,23.55
2018-09-15T09:06:52.813Z,23.56
2018-09-15T09:09:19.150Z,23.57
2018-09-15T09:11:45.525Z,23.58
2018-09-15T09:14:11.843Z,23.59
2018-09-15T09:16:38.228Z,23.60
2018-09-15T09:19:04.639Z,23.61
2018-09-15T09:21:31.028Z,23.60
2018-09-15T09:23:57.417Z,23.61
2018-09-15T09:26:23.838Z,23.63
2018-09-15T09:28:50.134Z,23.64
2018-09-15T09:31:16.480Z,23.64
2018-09-15T09:33:42.843Z,23.65
2018-09-15T09:36:09.248Z,23.67
2018-09-15T09:38:35.579Z,23.67
2018-09-15T09:41:01.975Z,23.68
2018-09-15T09:43:28.316Z,23.70
2018-09-15T09:45:54.673Z,23.70
2018-09-15T09:48:21.057Z,23.71
2018-09-15T09:50:47.364Z,23.69
2018-09-15T09:53:13.741Z,23.73
2018-09-15T09:55:40.095Z,23.74
2018-09-15T09:58:06.510Z,23.76
2018-09-15T10:00:32.843Z,23.75
2018-09-15T10:02:59.183Z,23.76
2018-09-15T10:05:25.522Z,23.77
2018-09-15T10:07:51.884Z,23.79
2018-09-15T10:10:18.199Z,23.79
2018-09-15T10:12:45.435Z,23.79
2018-09-15T10:15:11.767Z,23.79
2018-09-15T10:17:38.100Z,23.81
2018-09-15T10:20:04.458Z,23.82
2018-09-15T10:22:30.804Z,23.84
2018-09-15T10:24:57.180Z,23.84
2018-09-15T10:27:23.517Z,23.85
2018-09-15T10:29:49.835Z,23.87
2018-09-15T10:32:16.208Z,23.88
2018-09-15T10:34:42.580Z,23.88
2018-09-15T10:37:08.945Z,23.89
2018-09-15T10:39:35.282Z,23.90
2018-09-15T10:42:01.660Z,23.91
2018-09-15T10:44:28.039Z,23.92
2018-09-15T10:46:54.379Z,23.93
2018-09-15T10:49:20.751Z,23.94
2018-09-15T10:51:47.121Z,23.95
2018-09-15T10:54:13.495Z,23.96
2018-09-15T10:56:39.832Z,23.97
2018-09-15T10:59:06.198Z,23.97
2018-09-15T11:01:32.607Z,24.00
2018-09-15T11:03:58.982Z,24.01
2018-09-15T11:06:25.319Z,24.02
2018-09-15T11:08:51.684Z,24.04
2018-09-15T11:11:18.018Z,24.04
2018-09-15T11:13:44.471Z,24.06
2018-09-15T11:16:10.751Z,24.06
2018-09-15T11:18:37.129Z,24.07
2018-09-15T11:21:03.528Z,24.08
2018-09-15T11:23:29.878Z,24.08
2018-09-15T11:25:56.236Z,24.09
2018-09-15T11:28:22.671Z,24.10
2018-09-15T11:30:49.008Z,24.12
2018-09-15T11:33:15.665Z,24.13
2018-09-15T11:35:42.000Z,24.15
2018-09-15T11:38:08.312Z,24.15
2018-09-15T11:40:34.664Z,24.16
2018-09-15T11:43:01.004Z,24.17
2018-09-15T11:45:27.336Z,24.18
2018-09-15T11:47:53.763Z,24.20
2018-09-15T11:50:20.128Z,24.22
2018-09-15T11:52:46.500Z,24.22
2018-09-15T11:55:12.881Z,24.23
2018-09-15T11:57:39.202Z,24.24
2018-09-15T12:00:05.589Z,24.24
2018-09-15T12:02:31.955Z,24.25
2018-09-15T12:04:58.292Z,24.27
2018-09-15T12:07:24.667Z,24.28
2018-09-15T12:09:51.005Z,24.28
2018-09-15T12:12:17.364Z,24.30
2018-09-15T12:14:43.724Z,24.29
2018-09-15T12:17:10.156Z,24.33
2018-09-15T12:19:36.488Z,24.34
2018-09-15T12:22:02.845Z,24.35
2018-09-15T12:24:29.205Z,24.35
2018-09-15T12:26:55.553Z,24.34
2018-09-15T12:29:21.939Z,24.35
2018-09-15T12:31:48.307Z,24.38
2018-09-15T12:34:14.659Z,24.39
2018-09-15T12:36:40.992Z,24.40
2018-09-15T12:39:07.336Z,24.41
2018-09-15T12:41:33.736Z,24.41
2018-09-15T12:44:00.065Z,24.42
2018-09-15T12:46:26.432Z,24.43
2018-09-15T12:48:52.835Z,24.45
2018-09-15T12:51:19.190Z,24.45
2018-09-15T12:53:45.527Z,24.46
2018-09-15T12:56:11.855Z,24.47
2018-09-15T12:58:38.180Z,24.49
2018-09-15T13:01:04.542Z,24.48
2018-09-15T13:03:30.917Z,24.49
2018-09-15T13:05:57.268Z,24.49
2018-09-15T13:08:23.652Z,24.49
2018-09-15T13:10:49.983Z,24.49
2018-09-15T13:13:16.323Z,24.51
2018-09-15T13:15:42.704Z,24.51
2018-09-15T13:18:09.139Z,24.50
2018-09-15T13:20:35.513Z,24.51
2018-09-15T13:23:01.969Z,24.49
2018-09-15T13:25:28.313Z,24.51
2018-09-15T13:27:54.657Z,24.53
2018-09-15T13:30:21.071Z,24.53
2018-09-15T13:32:47.387Z,24.54
2018-09-15T13:35:13.723Z,24.53
2018-09-15T13:37:40.069Z,24.52
2018-09-15T13:40:06.460Z,24.54
2018-09-15T13:42:32.851Z,24.53
2018-09-15T13:44:59.216Z,24.54
2018-09-15T13:47:25.593Z,24.56
2018-09-15T13:49:52.083Z,24.52
2018-09-15T13:52:18.413Z,24.52
2018-09-15T13:54:44.749Z,24.51
2018-09-15T13:57:11.139Z,24.53
2018-09-15T13:59:37.481Z,24.54
2018-09-15T14:02:03.803Z,24.55
2018-09-15T14:04:30.126Z,24.54
2018-09-15T14:06:56.456Z,24.54
2018-09-15T14:09:22.793Z,24.54
2018-09-15T14:11:49.132Z,24.55
2018-09-15T14:14:15.495Z,24.57
2018-09-15T14:16:41.871Z,24.58
2018-09-15T14:19:08.219Z,24.60
2018-09-15T14:21:34.558Z,24.61
2018-09-15T14:24:00.891Z,24.61
2018-09-15T14:26:27.254Z,24.59
2018-09-15T14:28:53.584Z,24.60
2018-09-15T14:31:19.969Z,24.59
2018-09-15T14:33:46.342Z,24.60
2018-09-15T14:36:12.673Z,24.61
2018-09-15T14:38:39.060Z,24.62
2018-09-15T14:41:05.386Z,24.62
2018-09-15T14:43:31.724Z,24.62
2018-09-15T14:45:58.078Z,24.62
2018-09-15T14:48:24.450Z,24.62
2018-09-15T14:50:50.823Z,24.62
2018-09-15T14:53:17.155Z,24.61
2018-09-15T14:55:43.543Z,24.63
2018-09-15T14:58:09.863Z,24.62
2018-09-15T15:00:36.244Z,24.62
2018-09-15T15:03:02.582Z,24.62
2018-09-15T15:05:28.907Z,24.61
2018-09-15T15:07:55.268Z,24.61
2018-09-15T15:10:21.647Z,24.61
2018-09-15T15:12:48.009Z,24.61
2018-09-15T15:15:14.388Z,24.60
2018-09-15T15:17:40.718Z,24.59
2018-09-15T15:20:07.048Z,24.59
2018-09-15T15:22:33.439Z,24.59
2018-09-15T15:24:59.813Z,24.59
2018-09-15T15:27:34.902Z,24.58
2018-09-15T15:30:01.241Z,24.59
2018-09-15T15:34:58.778Z,24.56
2018-09-15T15:37:25.173Z,24.55
2018-09-15T15:39:52.146Z,24.55
2018-09-15T15:42:19.485Z,24.54
2018-09-15T15:44:45.821Z,24.53
2018-09-15T15:47:12.156Z,24.52
2018-09-15T15:49:38.527Z,24.54
2018-09-15T15:52:05.911Z,24.52
2018-09-15T15:54:32.226Z,24.51
2018-09-15T15:56:58.603Z,24.48
2018-09-15T15:59:24.968Z,24.47
2018-09-15T16:01:54.987Z,24.48
2018-09-15T16:04:21.411Z,24.47
2018-09-15T16:06:48.317Z,24.46
2018-09-15T16:09:14.655Z,24.44
2018-09-15T16:11:40.980Z,24.44
2018-09-15T16:14:07.315Z,24.43
2018-09-15T16:16:33.695Z,24.42
2018-09-15T16:19:00.201Z,24.42
2018-09-15T16:21:26.541Z,24.41
2018-09-15T16:23:53.531Z,24.41
2018-09-15T16:26:21.046Z,24.41
2018-09-15T16:28:47.387Z,24.38
2018-09-15T16:31:13.712Z,24.38
2018-09-15T16:33:40.045Z,24.37
2018-09-15T16:36:06.413Z,24.37
2018-09-15T16:38:32.765Z,24.34
2018-09-15T16:40:59.101Z,24.36
2018-09-15T16:43:25.442Z,24.35
2018-09-15T16:45:53.118Z,24.33
2018-09-15T16:48:19.483Z,24.33
2018-09-15T16:50:45.822Z,24.32
2018-09-15T16:53:12.189Z,24.30
2018-09-15T16:55:38.634Z,24.28
2018-09-15T16:58:04.986Z,24.28
2018-09-15T17:00:31.323Z,24.27
2018-09-15T17:02:57.657Z,24.26
2018-09-15T17:05:23.988Z,24.25
2018-09-15T17:07:50.365Z,24.22
2018-09-15T17:10:16.767Z,24.20
2018-09-15T17:12:44.439Z,24.20
2018-09-15T17:15:12.755Z,24.19
2018-09-15T17:17:40.007Z,24.19
2018-09-15T17:20:14.964Z,24.18
2018-09-15T17:22:41.339Z,24.17
2018-09-15T17:25:07.685Z,24.16
2018-09-15T17:27:33.998Z,24.15
2018-09-15T17:30:00.331Z,24.12
2018-09-15T17:32:26.679Z,24.09
2018-09-15T17:34:53.013Z,24.09
2018-09-15T17:37:20.420Z,24.08
2018-09-15T17:39:46.804Z,24.09
2018-09-15T17:42:13.194Z,24.05
2018-09-15T17:44:39.562Z,24.07
2018-09-15T17:47:05.930Z,24.04
2018-09-15T17:49:32.256Z,24.02
2018-09-15T17:51:58.654Z,24.01
2018-09-15T17:54:24.993Z,24.01
2018-09-15T17:56:51.325Z,23.97
2018-09-15T17:59:18.803Z,23.96
2018-09-15T18:01:45.143Z,23.93
2018-09-15T18:04:11.586Z,23.90
2018-09-15T18:06:37.938Z,23.92
2018-09-15T18:09:06.724Z,23.90
2018-09-15T18:11:33.057Z,23.88
2018-09-15T18:13:59.391Z,23.89
2018-09-15T18:16:25.720Z,23.87
2018-09-15T18:18:52.053Z,23.87
2018-09-15T18:21:18.890Z,23.83
2018-09-15T18:23:45.219Z,23.82
2018-09-15T18:26:11.699Z,23.82
2018-09-15T18:28:38.021Z,23.80
2018-09-15T18:31:04.342Z,23.78
2018-09-15T18:33:30.681Z,23.77
2018-09-15T18:35:57.025Z,23.77
2018-09-15T18:38:23.479Z,23.76
2018-09-15T18:40:50.938Z,23.76
2018-09-15T18:43:17.267Z,23.74
2018-09-15T18:45:44.643Z,23.69
2018-09-15T18:48:10.991Z,23.72
2018-09-15T18:50:37.367Z,23.69
2018-09-15T18:53:03.856Z,23.69
2018-09-15T18:55:30.213Z,23.68
2018-09-15T18:58:01.706Z,23.64
2018-09-15T19:00:28.079Z,23.66
2018-09-15T19:02:56.064Z,23.62
2018-09-15T19:05:22.426Z,23.63
2018-09-15T19:07:48.767Z,23.65
2018-09-15T19:10:16.294Z,23.60
2018-09-15T19:12:42.717Z,23.58
2018-09-15T19:15:09.045Z,23.59
2018-09-15T19:17:38.975Z,23.57
2018-09-15T19:20:05.331Z,23.58
2018-09-15T19:22:33.289Z,23.58
2018-09-15T19:24:59.691Z,23.58
2018-09-15T19:27:26.032Z,23.57
2018-09-15T19:29:52.366Z,23.54
2018-09-15T19:32:18.721Z,23.53
2018-09-15T19:34:45.181Z,23.55
2018-09-15T19:37:11.567Z,23.46
2018-09-15T19:39:37.902Z,23.47
2018-09-15T19:42:08.923Z,23.50
2018-09-15T19:44:35.291Z,23.49
2018-09-15T19:47:03.540Z,23.48
2018-09-15T19:49:29.884Z,23.46
2018-09-15T19:51:57.407Z,23.41
2018-09-15T19:54:23.761Z,23.45
2018-09-15T19:56:50.101Z,23.45
2018-09-15T19:59:21.171Z,23.45
2018-09-15T20:01:47.454Z,23.40
2018-09-15T20:04:13.761Z,23.42
2018-09-15T20:06:40.104Z,23.41
2018-09-15T20:09:06.460Z,23.41
2018-09-15T20:11:32.898Z,23.39
2018-09-15T20:13:59.228Z,23.39
2018-09-15T20:16:25.562Z,23.38
2018-09-15T20:18:51.943Z,23.33
2018-09-15T20:21:18.279Z,23.34
2018-09-15T20:23:44.667Z,23.36
2018-09-15T20:26:11.015Z,23.36
2018-09-15T20:28:38.284Z,23.34
2018-09-15T20:31:04.631Z,23.30
2018-09-15T20:33:31.064Z,23.36
2018-09-15T20:35:57.395Z,23.31
2018-09-15T20:38:23.715Z,23.32
2018-09-15T20:40:50.054Z,23.29
2018-09-15T20:43:17.552Z,23.33
2018-09-15T20:45:44.462Z,23.31
2018-09-15T20:48:10.808Z,23.26
2018-09-15T20:50:37.152Z,23.24
2018-09-15T20:53:03.490Z,23.27
2018-09-15T20:55:29.841Z,23.28
2018-09-15T20:57:56.209Z,23.28
2018-09-15T21:00:22.609Z,23.23
2018-09-15T21:02:48.932Z,23.26
2018-09-15T21:05:15.316Z,23.25
2018-09-15T21:07:43.380Z,23.23
2018-09-15T21:10:09.751Z,23.23
2018-09-15T21:12:36.076Z,23.20
2018-09-15T21:15:02.416Z,23.17
2018-09-15T21:17:28.791Z,23.17
2018-09-15T21:19:55.128Z,23.19
2018-09-15T21:22:21.569Z,23.18
2018-09-15T21:24:47.967Z,23.15
2018-09-15T21:27:14.301Z,23.16
2018-09-15T21:29:40.628Z,23.17
2018-09-15T21:32:07.024Z,23.15
2018-09-15T21:34:33.366Z,23.12
2018-09-15T21:36:59.749Z,23.11
2018-09-15T21:39:26.121Z,23.11
2018-09-15T21:44:23.389Z,23.12
2018-09-15T21:46:49.724Z,23.09
2018-09-15T21:49:16.110Z,23.08
2018-09-15T21:51:42.450Z,23.08
2018-09-15T21:54:08.777Z,23.10
2018-09-15T21:56:35.172Z,23.07
2018-09-15T21:59:02.308Z,23.09
2018-09-15T22:01:30.701Z,23.07
2018-09-15T22:03:59.116Z,23.07
2018-09-15T22:06:26.180Z,23.05
2018-09-15T22:08:52.816Z,23.07
2018-09-15T22:11:19.355Z,23.03
2018-09-15T22:13:45.964Z,23.03
2018-09-15T22:16:12.605Z,23.01
2018-09-15T22:18:39.078Z,22.99
2018-09-15T22:21:05.708Z,23.00
2018-09-15T22:23:34.675Z,22.99
2018-09-15T22:26:01.440Z,22.97
2018-09-15T22:28:29.201Z,22.99
2018-09-15T22:30:56.589Z,22.97
2018-09-15T22:33:23.198Z,22.96
2018-09-15T22:35:49.829Z,22.95
2018-09-15T22:38:18.566Z,22.95
2018-09-15T22:40:45.060Z,22.96
2018-09-15T22:43:13.395Z,22.95
2018-09-15T22:45:39.864Z,22.93
2018-09-15T22:48:06.401Z,22.93
2018-09-15T22:50:33.035Z,22.92
2018-09-15T22:52:59.627Z,22.90
2018-09-15T22:55:26.167Z,22.91
2018-09-15T22:57:54.377Z,22.90
2018-09-15T23:00:21.012Z,22.86
2018-09-15T23:02:47.623Z,22.88
2018-09-15T23:05:14.079Z,22.87
2018-09-15T23:07:40.615Z,22.86
2018-09-15T23:10:07.253Z,22.85
2018-09-15T23:12:33.866Z,22.86
2018-09-15T23:15:00.469Z,22.85
2018-09-15T23:17:27.994Z,22.84
2018-09-15T23:19:54.594Z,22.84
2018-09-15T23:22:21.113Z,22.82
2018-09-15T23:24:47.665Z,22.85
2018-09-15T23:27:14.340Z,22.81
2018-09-15T23:29:41.595Z,22.83
2018-09-15T23:32:08.185Z,22.80
2018-09-15T23:34:34.659Z,22.79
2018-09-15T23:37:02.938Z,22.81
2018-09-15T23:39:29.462Z,22.79
2018-09-15T23:41:56.056Z,22.79
2018-09-15T23:44:22.543Z,22.78
2018-09-15T23:46:51.733Z,22.80
2018-09-15T23:49:18.129Z,22.77
2018-09-15T23:51:44.515Z,22.77
2018-09-15T23:54:13.231Z,22.76
2018-09-15T23:56:39.599Z,22.76
2018-09-15T23:59:05.979Z,22.75
